Time;durP1;ratioP1;P1;durP2;ratioP2;P2;SDS_P1;SDS_P2;PMS_P1;PMS_P2;Temp;Humidity;BMP_temperature;BMP_pressure;BME280_temperature;BME280_humidity;BME280_pressure;Samples;Min_cycle;Max_cycle;Signal;HPM_P1;HPM_P2
2021/12/09 00:01:23;;;;;;;14.45;1.88;;;;;;;1.45;100.00;99776.25;5037892;28;20053;-50
2021/12/09 00:03:55;;;;;;;12.57;1.65;;;;;;;1.48;100.00;99784.00;5036772;28;20116;-52
2021/12/09 00:06:29;;;;;;;10.68;1.60;;;;;;;1.57;100.00;99781.97;5036903;28;20068;-51
2021/12/09 00:09:01;;;;;;;13.15;2.20;;;;;;;1.63;100.00;99779.09;5037691;28;20049;-50
2021/12/09 00:11:29;;;;;;;15.75;1.88;;;;;;;1.64;100.00;99767.75;5037783;28;20065;-50
2021/12/09 00:13:58;;;;;;;7.32;1.73;;;;;;;1.57;100.00;99758.44;5037913;28;20057;-51
2021/12/09 00:16:26;;;;;;;6.85;1.50;;;;;;;1.85;100.00;99780.03;5037588;28;20058;-50
2021/12/09 00:18:55;;;;;;;12.82;2.55;;;;;;;1.98;100.00;99790.00;5037847;28;20054;-51
2021/12/09 00:21:24;;;;;;;10.48;1.63;;;;;;;2.00;100.00;99789.06;5036834;28;20409;-50
2021/12/09 00:23:52;;;;;;;15.10;1.80;;;;;;;2.04;100.00;99792.41;5036578;28;20053;-50
2021/12/09 00:26:21;;;;;;;8.15;1.52;;;;;;;2.05;100.00;99783.63;5037605;28;20062;-50
2021/12/09 00:28:49;;;;;;;9.15;1.83;;;;;;;2.21;100.00;99774.28;5037638;28;20057;-50
2021/12/09 00:31:18;;;;;;;8.50;2.65;;;;;;;2.38;100.00;99778.84;5036525;28;20053;-49
2021/12/09 00:33:47;;;;;;;13.57;1.75;;;;;;;2.32;100.00;99773.00;5036225;28;20065;-50
2021/12/09 00:36:26;;;;;;;10.00;1.73;;;;;;;2.32;100.00;99766.00;5036705;28;20485;-53
2021/12/09 00:38:57;;;;;;;10.10;2.70;;;;;;;2.28;100.00;99763.56;5037278;28;20061;-53
2021/12/09 00:41:25;;;;;;;4.80;1.27;;;;;;;2.23;100.00;99759.34;5036149;28;20053;-53
2021/12/09 00:43:53;;;;;;;12.45;2.25;;;;;;;2.09;100.00;99756.44;5036351;28;20057;-53
2021/12/09 00:46:21;;;;;;;9.98;1.60;;;;;;;1.90;100.00;99760.66;5036513;28;20061;-53
2021/12/09 00:48:50;;;;;;;14.35;2.60;;;;;;;1.86;100.00;99760.78;5036455;28;20437;-53
2021/12/09 00:51:18;;;;;;;16.67;2.10;;;;;;;1.81;100.00;99757.50;5036405;28;20501;-53
2021/12/09 00:53:46;;;;;;;13.77;1.85;;;;;;;1.74;100.00;99760.41;5036981;28;20068;-53
2021/12/09 00:56:16;;;;;;;5.75;1.20;;;;;;;1.74;100.00;99763.03;5037163;28;20068;-50
2021/12/09 00:58:44;;;;;;;13.35;1.25;;;;;;;1.82;100.00;99767.06;5036406;28;20053;-53
2021/12/09 01:01:13;;;;;;;6.07;1.20;;;;;;;1.82;100.00;99767.06;5037018;28;20053;-51
2021/12/09 01:03:42;;;;;;;13.25;2.50;;;;;;;1.98;100.00;99769.06;5036001;28;20504;-52
2021/12/09 01:06:11;;;;;;;10.65;2.03;;;;;;;1.99;100.00;99769.03;5036060;28;20521;-52
2021/12/09 01:08:41;;;;;;;6.78;1.35;;;;;;;1.98;100.00;99771.69;5035610;28;20064;-52
2021/12/09 01:11:10;;;;;;;13.05;1.35;;;;;;;1.82;100.00;99772.28;5035768;28;20061;-53
2021/12/09 01:13:40;;;;;;;14.90;2.05;;;;;;;1.74;100.00;99771.72;5035485;28;20053;-51
2021/12/09 01:16:09;;;;;;;14.38;1.80;;;;;;;1.77;100.00;99789.06;5035620;28;20142;-52
2021/12/09 01:18:38;;;;;;;6.80;1.20;;;;;;;1.61;100.00;99794.00;5035630;28;20058;-53
2021/12/09 01:21:07;;;;;;;11.18;2.13;;;;;;;1.57;100.00;99795.03;5036703;28;20057;-52
2021/12/09 01:23:36;;;;;;;11.60;2.15;;;;;;;1.59;100.00;99801.06;5035522;28;20069;-51
2021/12/09 01:26:06;;;;;;;9.73;1.92;;;;;;;1.59;100.00;99790.59;5035693;28;20069;-52
2021/12/09 01:28:44;;;;;;;10.95;1.77;;;;;;;1.55;100.00;99791.63;5036235;28;20097;-53
2021/12/09 01:31:21;;;;;;;14.57;2.83;;;;;;;1.57;100.00;99792.41;5036320;28;20053;-52
2021/12/09 01:33:51;;;;;;;14.88;2.08;;;;;;;1.54;100.00;99808.22;5035344;28;20054;-52
2021/12/09 01:36:19;;;;;;;17.45;3.00;;;;;;;1.44;100.00;99799.84;5034993;28;20056;-53
2021/12/09 01:38:47;;;;;;;11.05;1.88;;;;;;;1.41;100.00;99813.88;5035534;28;20084;-52
2021/12/09 01:41:16;;;;;;;14.18;1.90;;;;;;;1.57;100.00;99834.25;5035458;28;20064;-52
2021/12/09 01:43:44;;;;;;;20.50;2.05;;;;;;;1.59;100.00;99854.19;5034914;28;20064;-50
2021/12/09 01:46:16;;;;;;;6.72;1.73;;;;;;;1.91;100.00;99830.41;5035435;28;20053;-51
2021/12/09 01:48:47;;;;;;;10.10;1.45;;;;;;;2.10;100.00;99792.19;5035426;28;20155;-52
2021/12/09 01:51:15;;;;;;;12.32;1.20;;;;;;;2.16;100.00;99798.94;5035358;28;20053;-52
2021/12/09 01:53:43;;;;;;;15.77;2.75;;;;;;;2.10;100.00;99784.31;5034745;28;20072;-52
2021/12/09 01:56:14;;;;;;;9.20;1.77;;;;;;;2.01;100.00;99789.91;5035224;28;20057;-50
2021/12/09 01:58:42;;;;;;;15.13;2.47;;;;;;;1.86;100.00;99800.00;5034598;28;20520;-52
2021/12/09 02:01:10;;;;;;;10.55;1.88;;;;;;;1.76;100.00;99798.66;5034768;28;20072;-53
2021/12/09 02:03:40;;;;;;;13.32;1.85;;;;;;;1.69;100.00;99794.56;5034788;28;20097;-53
2021/12/09 02:06:09;;;;;;;13.25;2.20;;;;;;;1.63;100.00;99798.28;5035048;28;20057;-53
2021/12/09 02:08:37;;;;;;;11.40;2.50;;;;;;;1.62;100.00;99795.72;5035754;28;20058;-49
2021/12/09 02:11:06;;;;;;;11.52;1.92;;;;;;;1.71;100.00;99803.22;5034639;28;20053;-52
2021/12/09 02:13:34;;;;;;;14.55;1.65;;;;;;;1.67;100.00;99814.69;5035786;28;20429;-52
2021/12/09 02:16:04;;;;;;;11.75;1.85;;;;;;;1.60;100.00;99823.69;5034873;28;20378;-50
2021/12/09 02:18:33;;;;;;;6.75;1.30;;;;;;;1.54;100.00;99819.50;5034837;28;20057;-52
2021/12/09 02:21:08;;;;;;;6.00;1.52;;;;;;;1.50;100.00;99823.16;5034980;28;20054;-52
2021/12/09 02:23:37;;;;;;;9.63;1.25;;;;;;;1.40;100.00;99822.63;5035078;28;20065;-53
2021/12/09 02:26:05;;;;;;;6.35;1.27;;;;;;;1.30;100.00;99816.00;5034401;28;20058;-53
2021/12/09 02:28:34;;;;;;;5.03;1.20;;;;;;;1.19;100.00;99818.13;5034586;28;20057;-52
2021/12/09 02:31:03;;;;;;;7.82;1.63;;;;;;;1.13;100.00;99818.34;5034845;28;20053;-52
2021/12/09 02:33:31;;;;;;;8.63;1.20;;;;;;;1.06;100.00;99831.63;5034099;28;20084;-52
2021/12/09 02:36:00;;;;;;;9.50;1.70;;;;;;;1.16;100.00;99826.94;5034277;28;20049;-50
2021/12/09 02:38:30;;;;;;;4.40;1.30;;;;;;;1.29;100.00;99835.19;5034297;28;20064;-52
2021/12/09 02:40:58;;;;;;;8.32;1.48;;;;;;;1.34;100.00;99828.06;5035318;28;20054;-52
2021/12/09 02:43:29;;;;;;;9.20;1.45;;;;;;;1.43;100.00;99826.88;5033976;28;20065;-51
2021/12/09 02:46:00;;;;;;;6.43;2.03;;;;;;;1.76;100.00;99827.41;5033918;28;20057;-52
2021/12/09 02:48:28;;;;;;;6.47;1.50;;;;;;;1.80;100.00;99826.41;5033835;28;20096;-52
2021/12/09 02:50:56;;;;;;;12.65;1.42;;;;;;;1.80;100.00;99831.66;5034047;28;20054;-52
2021/12/09 02:53:25;;;;;;;11.07;2.17;;;;;;;1.81;100.00;99835.94;5034091;28;20054;-52
2021/12/09 02:55:55;;;;;;;10.98;1.73;;;;;;;1.75;100.00;99838.81;5034053;28;20053;-52
2021/12/09 02:58:23;;;;;;;11.95;1.58;;;;;;;1.78;100.00;99830.84;5034674;28;20061;-51
2021/12/09 03:00:58;;;;;;;9.55;1.60;;;;;;;1.79;100.00;99834.31;5034392;28;20053;-53
2021/12/09 03:03:27;;;;;;;11.60;1.27;;;;;;;1.83;100.00;99826.31;5033720;28;20057;-51
2021/12/09 03:05:56;;;;;;;7.85;1.40;;;;;;;1.82;100.00;99844.66;5034204;28;20151;-50
2021/12/09 03:08:34;;;;;;;7.93;1.00;;;;;;;1.81;100.00;99842.94;5033822;28;20057;-52
2021/12/09 03:11:10;;;;;;;15.00;1.42;;;;;;;1.90;100.00;99846.97;5034224;28;20417;-50
2021/12/09 03:13:39;;;;;;;10.48;2.33;;;;;;;2.04;100.00;99844.72;5033699;28;20057;-52
2021/12/09 03:16:07;;;;;;;8.00;1.50;;;;;;;2.30;100.00;99837.63;5034164;28;20058;-50
2021/12/09 03:18:40;;;;;;;6.22;1.30;;;;;;;2.50;100.00;99827.22;5033852;28;20066;-50
2021/12/09 03:21:19;;;;;;;9.32;1.30;;;;;;;2.63;100.00;99813.66;5034462;28;20425;-52
2021/12/09 03:23:48;;;;;;;11.13;1.17;;;;;;;2.65;100.00;99819.69;5033531;28;20060;-52
2021/12/09 03:26:20;;;;;;;12.20;2.00;;;;;;;2.78;100.00;99818.28;5034862;28;20061;-53
2021/12/09 03:28:49;;;;;;;7.38;1.13;;;;;;;2.75;100.00;99821.03;5033723;28;20512;-50
2021/12/09 03:31:17;;;;;;;13.35;1.30;;;;;;;2.72;100.00;99815.91;5034016;28;20054;-52
2021/12/09 03:33:45;;;;;;;6.88;1.65;;;;;;;2.62;100.00;99811.94;5033762;28;20058;-53
2021/12/09 03:36:13;;;;;;;5.78;1.08;;;;;;;2.57;100.00;99814.75;5033697;28;20057;-52
2021/12/09 03:38:42;;;;;;;7.78;1.50;;;;;;;2.51;100.00;99802.78;5034187;28;20069;-51
2021/12/09 03:41:10;;;;;;;8.23;0.88;;;;;;;2.40;100.00;99804.94;5033941;28;20497;-52
2021/12/09 03:43:40;;;;;;;5.75;1.10;;;;;;;2.30;100.00;99806.22;5033370;28;20563;-53
2021/12/09 03:46:08;;;;;;;5.03;1.08;;;;;;;2.14;100.00;99817.28;5033896;28;20054;-52
2021/12/09 03:48:37;;;;;;;7.38;1.23;;;;;;;2.08;100.00;99814.91;5033488;28;20061;-52
2021/12/09 03:51:06;;;;;;;4.22;1.05;;;;;;;1.99;100.00;99804.81;5037124;28;20053;-52
2021/12/09 03:53:34;;;;;;;4.45;1.13;;;;;;;1.93;100.00;99807.63;5038384;28;20069;-52
2021/12/09 03:56:02;;;;;;;6.57;1.25;;;;;;;1.88;100.00;99801.72;5037185;28;20067;-52
2021/12/09 03:58:31;;;;;;;9.30;0.98;;;;;;;1.92;100.00;99804.19;5038298;28;20064;-52
2021/12/09 04:01:00;;;;;;;4.00;1.17;;;;;;;1.90;100.00;99805.13;5037446;28;20424;-52
2021/12/09 04:03:29;;;;;;;8.73;1.15;;;;;;;1.84;100.00;99801.00;5036865;28;20141;-50
2021/12/09 04:05:57;;;;;;;8.05;1.42;;;;;;;1.93;100.00;99799.78;5037312;28;20060;-52
2021/12/09 04:08:25;;;;;;;5.47;1.10;;;;;;;1.83;100.00;99794.94;5036882;28;20501;-52
2021/12/09 04:10:53;;;;;;;8.15;1.38;;;;;;;1.87;100.00;99795.66;5037196;28;20057;-52
2021/12/09 04:13:22;;;;;;;7.15;1.08;;;;;;;1.90;100.00;99794.69;5037815;28;20111;-51
2021/12/09 04:15:50;;;;;;;9.15;1.48;;;;;;;1.88;100.00;99796.50;5037058;28;20072;-52
2021/12/09 04:18:20;;;;;;;6.43;1.20;;;;;;;1.88;100.00;99812.19;5037093;28;20065;-52
2021/12/09 04:20:49;;;;;;;8.98;2.17;;;;;;;1.86;100.00;99809.63;5036927;28;20128;-52
2021/12/09 04:23:18;;;;;;;6.97;0.95;;;;;;;1.87;100.00;99806.13;5037345;28;20065;-52
2021/12/09 04:25:46;;;;;;;8.07;1.27;;;;;;;1.82;100.00;99811.50;5036667;28;20508;-50
2021/12/09 04:28:14;;;;;;;10.02;1.42;;;;;;;1.76;100.00;99814.34;5037059;28;20057;-53
2021/12/09 04:30:42;;;;;;;12.35;1.30;;;;;;;1.77;100.00;99816.06;5037428;28;20424;-53
2021/12/09 04:33:11;;;;;;;7.82;1.27;;;;;;;1.78;100.00;99816.91;5037713;28;20053;-50
2021/12/09 04:35:41;;;;;;;9.95;1.67;;;;;;;1.78;100.00;99807.31;5036807;28;20061;-51
2021/12/09 04:38:09;;;;;;;9.13;2.35;;;;;;;1.69;100.00;99812.88;5036421;28;20053;-52
2021/12/09 04:40:38;;;;;;;7.43;1.30;;;;;;;1.71;100.00;99811.03;5036665;28;20521;-50
2021/12/09 04:43:06;;;;;;;8.85;1.30;;;;;;;1.64;100.00;99814.81;5036815;28;20076;-52
2021/12/09 04:45:35;;;;;;;6.22;1.40;;;;;;;1.66;100.00;99824.31;5037434;28;20057;-53
2021/12/09 04:48:04;;;;;;;5.25;1.35;;;;;;;1.58;100.00;99815.91;5036218;28;20053;-52
2021/12/09 04:50:33;;;;;;;8.82;1.63;;;;;;;1.52;100.00;99817.88;5036588;28;20082;-51
2021/12/09 04:53:03;;;;;;;10.63;1.42;;;;;;;1.45;100.00;99810.25;5036201;28;20060;-50
2021/12/09 04:55:32;;;;;;;11.77;1.45;;;;;;;1.43;100.00;99817.28;5035941;28;20054;-51
2021/12/09 04:58:00;;;;;;;10.95;1.27;;;;;;;1.38;100.00;99823.56;5036343;28;20060;-52
2021/12/09 05:00:32;;;;;;;8.55;1.60;;;;;;;1.35;100.00;99818.47;5036402;28;20068;-52
2021/12/09 05:03:06;;;;;;;;;;;;;;;1.42;100.00;99810.34;5036861;28;20398;-51
2021/12/09 05:05:37;;;;;;;5.68;1.27;;;;;;;1.52;100.00;99826.56;5035875;28;20315;-52
2021/12/09 05:08:08;;;;;;;12.30;2.13;;;;;;;1.53;100.00;99835.25;5035981;28;20059;-50
2021/12/09 05:10:52;;;;;;;9.68;1.23;;;;;;;1.60;100.00;99828.91;5035572;28;20291;-52
2021/12/09 05:13:21;;;;;;;11.35;1.85;;;;;;;1.62;100.00;99838.38;5036391;28;20065;-53
2021/12/09 05:15:49;;;;;;;12.18;1.50;;;;;;;1.60;100.00;99834.97;5035782;28;20061;-52
2021/12/09 05:18:18;;;;;;;10.18;1.65;;;;;;;1.71;100.00;99831.97;5036203;28;20065;-51
2021/12/09 05:20:47;;;;;;;8.68;1.63;;;;;;;1.66;100.00;99826.06;5036035;28;20076;-51
2021/12/09 05:23:18;;;;;;;10.13;1.73;;;;;;;1.64;100.00;99825.25;5036168;28;20493;-52
2021/12/09 05:25:47;;;;;;;11.02;1.95;;;;;;;1.64;100.00;99820.03;5035606;28;20061;-53
2021/12/09 05:28:17;;;;;;;13.30;2.00;;;;;;;1.59;100.00;99821.97;5035774;28;20053;-52
2021/12/09 05:33:35;;;;;;;11.32;1.90;;;;;;;1.62;100.00;99814.00;5018249;28;20061;-53
2021/12/09 05:36:04;;;;;;;9.85;1.90;;;;;;;1.54;100.00;99821.28;5036655;28;20065;-51
2021/12/09 05:38:33;;;;;;;13.25;1.52;;;;;;;1.66;100.00;99815.59;5035300;28;20069;-52
2021/12/09 05:41:02;;;;;;;16.92;2.03;;;;;;;1.70;100.00;99811.09;5036446;28;20084;-50
2021/12/09 05:43:30;;;;;;;15.70;2.88;;;;;;;1.79;100.00;99803.78;5035426;28;20053;-53
2021/12/09 05:45:59;;;;;;;11.50;1.80;;;;;;;1.84;100.00;99817.53;5035163;28;20059;-53
2021/12/09 05:48:27;;;;;;;11.10;1.95;;;;;;;1.92;100.00;99813.81;5035379;28;20053;-50
2021/12/09 05:50:55;;;;;;;12.18;2.10;;;;;;;1.93;100.00;99810.25;5035255;28;20547;-52
2021/12/09 05:53:23;;;;;;;12.23;1.77;;;;;;;1.96;100.00;99797.06;5036119;28;20465;-53
2021/12/09 05:55:53;;;;;;;11.38;2.08;;;;;;;1.95;100.00;99800.59;5036004;28;20064;-51
2021/12/09 05:58:23;;;;;;;29.02;2.15;;;;;;;1.91;100.00;99801.63;5035904;28;20049;-53
2021/12/09 06:00:54;;;;;;;12.93;2.45;;;;;;;1.84;100.00;99796.63;5034538;28;20560;-50
2021/12/09 06:03:23;;;;;;;10.45;2.83;;;;;;;1.79;100.00;99801.16;5035722;28;20129;-51
2021/12/09 06:05:52;;;;;;;9.05;1.63;;;;;;;1.72;100.00;99807.53;5035261;28;20383;-52
2021/12/09 06:08:20;;;;;;;16.42;1.85;;;;;;;1.69;100.00;99807.66;5035491;28;20091;-52
2021/12/09 06:10:49;;;;;;;12.27;2.08;;;;;;;1.67;100.00;99805.09;5035114;28;20077;-52
2021/12/09 06:13:18;;;;;;;9.80;2.35;;;;;;;1.69;100.00;99807.66;5035410;28;20064;-52
2021/12/09 06:15:47;;;;;;;13.60;1.95;;;;;;;1.69;100.00;99802.41;5035693;28;20058;-53
2021/12/09 06:18:15;;;;;;;15.55;1.83;;;;;;;1.64;100.00;99809.56;5034861;28;20061;-53
2021/12/09 06:20:43;;;;;;;11.93;1.40;;;;;;;1.68;100.00;99803.31;5034373;28;20065;-52
2021/12/09 06:23:12;;;;;;;18.38;2.28;;;;;;;1.69;100.00;99798.97;5034282;28;20057;-52
2021/12/09 06:25:40;;;;;;;12.98;2.00;;;;;;;1.81;100.00;99786.25;5034749;28;20054;-51
2021/12/09 06:28:08;;;;;;;9.27;1.50;;;;;;;1.82;100.00;99779.28;5034694;28;20084;-50
2021/12/09 06:30:38;;;;;;;8.60;1.25;;;;;;;1.86;100.00;99794.78;5034536;28;20060;-50
2021/12/09 06:33:06;;;;;;;11.45;2.20;;;;;;;1.91;100.00;99784.16;5034635;28;20053;-52
2021/12/09 06:35:35;;;;;;;15.30;3.50;;;;;;;1.84;100.00;99786.16;5034159;28;20057;-51
2021/12/09 06:38:05;;;;;;;10.65;2.58;;;;;;;1.86;100.00;99784.31;5034595;28;20061;-52
2021/12/09 06:40:33;;;;;;;14.55;2.55;;;;;;;1.83;100.00;99788.81;5033923;28;20061;-53
2021/12/09 06:43:07;;;;;;;17.75;3.40;;;;;;;1.85;100.00;99790.47;5034289;28;20061;-52
2021/12/09 06:45:35;;;;;;;9.27;2.70;;;;;;;1.88;100.00;99786.03;5034460;28;20532;-52
2021/12/09 06:48:06;;;;;;;19.70;2.70;;;;;;;1.88;100.00;99791.28;5034661;28;20097;-52
2021/12/09 06:50:34;;;;;;;24.27;4.25;;;;;;;1.91;100.00;99792.00;5034435;28;20084;-52
2021/12/09 06:53:02;;;;;;;11.00;2.83;;;;;;;1.91;100.00;99792.00;5033782;28;20521;-53
2021/12/09 06:55:31;;;;;;;11.65;3.10;;;;;;;1.96;100.00;99797.06;5034228;28;20064;-50
2021/12/09 06:57:59;;;;;;;18.88;2.80;;;;;;;1.97;100.00;99796.16;5034624;28;20088;-52
2021/12/09 07:00:30;;;;;;;18.00;4.10;;;;;;;2.06;100.00;99797.56;5034952;28;20072;-51
2021/12/09 07:02:59;;;;;;;27.33;5.57;;;;;;;2.08;100.00;99804.44;5043390;28;20057;-52
2021/12/09 07:05:30;;;;;;;12.68;3.17;;;;;;;2.11;100.00;99803.47;5046900;28;20053;-52
2021/12/09 07:07:58;;;;;;;9.18;2.78;;;;;;;2.12;100.00;99802.56;5053704;28;20063;-52
2021/12/09 07:10:27;;;;;;;9.63;2.00;;;;;;;2.13;100.00;99793.81;5049743;28;20053;-51
2021/12/09 07:12:55;;;;;;;10.77;2.65;;;;;;;2.14;100.00;99793.75;5042728;28;20468;-51
2021/12/09 07:15:24;;;;;;;10.85;2.35;;;;;;;2.03;100.00;99790.69;5037568;28;20060;-52
2021/12/09 07:17:52;;;;;;;9.40;1.77;;;;;;;2.08;100.00;99783.50;5043356;28;20072;-52
2021/12/09 07:20:22;;;;;;;9.05;1.63;;;;;;;2.08;100.00;99791.34;5047304;28;20061;-51
2021/12/09 07:22:53;;;;;;;12.57;2.20;;;;;;;2.10;100.00;99793.91;5052306;28;20397;-51
2021/12/09 07:25:22;;;;;;;12.93;2.63;;;;;;;2.19;100.00;99790.97;5046124;28;20061;-50
2021/12/09 07:27:50;;;;;;;8.52;1.70;;;;;;;2.18;100.00;99790.09;5057982;28;20053;-52
2021/12/09 07:30:19;;;;;;;8.52;1.60;;;;;;;2.26;100.00;99797.66;5055552;28;20334;-52
2021/12/09 07:32:48;;;;;;;12.70;2.30;;;;;;;2.29;100.00;99786.22;5038475;28;20053;-52
2021/12/09 07:35:17;;;;;;;7.20;2.20;;;;;;;2.32;100.00;99793.94;5046306;28;20071;-51
2021/12/09 07:37:46;;;;;;;19.63;2.50;;;;;;;2.38;100.00;99798.94;5049719;28;20057;-52
2021/12/09 07:40:17;;;;;;;7.38;2.33;;;;;;;2.35;100.00;99791.19;5052117;28;20057;-52
2021/12/09 07:42:46;;;;;;;11.15;1.85;;;;;;;2.39;100.00;99787.56;5057093;28;20065;-51
2021/12/09 07:45:14;;;;;;;10.05;1.95;;;;;;;2.55;100.00;99790.41;5057148;28;20528;-52
2021/12/09 07:47:44;;;;;;;5.03;1.45;;;;;;;2.65;100.00;99798.75;5047521;28;20054;-52
2021/12/09 07:50:14;;;;;;;12.15;1.98;;;;;;;2.63;100.00;99797.97;5054619;28;20057;-52
2021/12/09 07:52:43;;;;;;;7.65;1.83;;;;;;;2.76;100.00;99801.78;5052207;28;20059;-51
2021/12/09 07:55:11;;;;;;;9.80;2.22;;;;;;;2.77;100.00;99798.22;5037339;28;20056;-52
2021/12/09 07:57:42;;;;;;;8.77;1.77;;;;;;;2.75;100.00;99807.94;5037881;28;20079;-51
2021/12/09 08:00:13;;;;;;;10.18;1.85;;;;;;;2.78;100.00;99810.41;5048560;28;20063;-51
2021/12/09 08:02:42;;;;;;;7.73;2.77;;;;;;;2.96;100.00;99809.66;5036827;28;20057;-51
2021/12/09 08:05:11;;;;;;;16.15;3.95;;;;;;;2.94;100.00;99811.50;5036764;28;20291;-52
2021/12/09 08:07:41;;;;;;;9.32;2.47;;;;;;;2.93;100.00;99814.19;5036978;28;20058;-52
2021/12/09 08:10:11;;;;;;;13.02;2.70;;;;;;;2.98;100.00;99820.06;5037130;28;20069;-49
2021/12/09 08:12:41;;;;;;;16.58;3.30;;;;;;;3.16;100.00;99826.28;5036982;28;20508;-51
2021/12/09 08:15:25;;;;;;;8.95;1.92;;;;;;;3.24;100.00;99816.34;5037659;28;20128;-51
2021/12/09 08:18:02;;;;;;;6.82;1.30;;;;;;;3.31;100.00;99803.81;5037158;28;20408;-52
2021/12/09 08:20:31;;;;;;;13.02;1.60;;;;;;;3.42;100.00;99801.59;5036333;28;20108;-52
2021/12/09 08:23:00;;;;;;;12.23;1.52;;;;;;;3.43;100.00;99808.56;5036322;28;20057;-51
2021/12/09 08:25:28;;;;;;;7.38;1.60;;;;;;;3.55;100.00;99799.28;5037384;28;20115;-52
2021/12/09 08:27:58;;;;;;;11.75;1.88;;;;;;;3.67;100.00;99806.59;5036871;28;20064;-51
2021/12/09 08:30:27;;;;;;;15.15;2.53;;;;;;;3.77;100.00;99796.56;5036394;28;20061;-52
2021/12/09 08:33:15;;;;;;;11.10;2.03;;;;;;;3.84;100.00;99786.63;5036009;28;20049;-51
2021/12/09 08:35:43;;;;;;;9.30;2.00;;;;;;;3.87;100.00;99792.59;5035117;28;20064;-51
2021/12/09 08:38:11;;;;;;;9.05;2.40;;;;;;;3.97;100.00;99793.03;5036614;28;20076;-51
2021/12/09 08:40:42;;;;;;;8.00;1.80;;;;;;;4.04;100.00;99801.47;5036730;28;20072;-51
2021/12/09 08:43:12;;;;;;;9.10;2.10;;;;;;;4.06;100.00;99797.81;5036687;28;20061;-51
2021/12/09 08:45:40;;;;;;;10.02;2.03;;;;;;;4.09;100.00;99792.44;5036593;28;20057;-52
2021/12/09 08:48:09;;;;;;;8.80;1.70;;;;;;;4.09;100.00;99797.69;5036239;28;20060;-52
2021/12/09 08:50:38;;;;;;;12.50;1.50;;;;;;;4.15;100.00;99800.94;5036464;28;20425;-52
2021/12/09 08:53:09;;;;;;;7.43;1.15;;;;;;;4.24;100.00;99805.78;5036431;28;20065;-52
2021/12/09 08:55:37;;;;;;;6.82;1.60;;;;;;;4.30;100.00;99799.38;5036218;28;20061;-52
2021/12/09 08:58:06;;;;;;;8.80;1.80;;;;;;;4.36;100.00;99794.69;5036079;28;20057;-51
2021/12/09 09:00:36;;;;;;;5.32;1.40;;;;;;;4.49;99.96;99794.09;5036056;28;20065;-52
2021/12/09 09:03:05;;;;;;;10.38;1.48;;;;;;;4.50;99.33;99795.81;5036905;28;20115;-53
2021/12/09 09:05:35;;;;;;;7.35;1.42;;;;;;;4.57;99.29;99790.19;5036261;28;20061;-50
2021/12/09 09:08:05;;;;;;;7.13;1.63;;;;;;;4.65;98.70;99790.63;5036144;28;20057;-49
2021/12/09 09:10:38;;;;;;;7.53;1.77;;;;;;;4.67;98.94;99782.69;5036466;28;20053;-52
2021/12/09 09:13:07;;;;;;;10.07;1.52;;;;;;;4.74;99.01;99792.00;5035571;28;20068;-52
2021/12/09 09:15:37;;;;;;;7.82;1.50;;;;;;;4.74;99.16;99794.63;5035696;28;20049;-52
2021/12/09 09:18:05;;;;;;;7.65;2.00;;;;;;;4.78;99.99;99790.91;5036501;28;20053;-50
2021/12/09 09:20:39;;;;;;;10.23;1.90;;;;;;;4.93;98.97;99788.44;5036567;28;20061;-52
2021/12/09 09:23:10;;;;;;;7.13;1.75;;;;;;;5.03;98.64;99785.25;5036207;28;20127;-52
2021/12/09 09:25:39;;;;;;;11.52;2.17;;;;;;;5.09;97.88;99789.34;5035800;28;20061;-52
2021/12/09 09:28:07;;;;;;;11.55;1.90;;;;;;;5.13;98.43;99779.56;5035502;28;20061;-52
2021/12/09 09:30:39;;;;;;;9.07;2.17;;;;;;;5.24;97.79;99789.50;5035692;28;20057;-50
2021/12/09 09:33:10;;;;;;;9.57;2.13;;;;;;;5.30;97.09;99797.94;5036583;28;20057;-52
2021/12/09 09:35:39;;;;;;;14.02;2.22;;;;;;;5.26;97.61;99790.28;5036565;28;20084;-52
2021/12/09 09:38:07;;;;;;;11.27;2.35;;;;;;;5.36;97.69;99792.38;5035562;28;20063;-52
2021/12/09 09:40:41;;;;;;;11.30;1.95;;;;;;;5.48;97.64;99782.97;5036068;28;20059;-52
2021/12/09 09:43:27;;;;;;;11.38;3.63;;;;;;;5.64;96.30;99775.09;5036373;28;20069;-52
2021/12/09 09:46:05;;;;;;;6.30;1.80;;;;;;;5.71;95.14;99773.00;5035504;28;20544;-52
2021/12/09 09:48:35;;;;;;;10.48;2.13;;;;;;;5.74;95.26;99780.72;5034493;28;20057;-52
2021/12/09 09:51:04;;;;;;;16.63;2.42;;;;;;;5.69;95.41;99780.13;5035062;28;20088;-52
2021/12/09 09:53:33;;;;;;;12.10;1.80;;;;;;;5.66;95.91;99788.19;5034783;28;20061;-52
2021/12/09 09:56:08;;;;;;;11.32;2.05;;;;;;;5.64;95.99;99790.06;5035587;28;20132;-52
2021/12/09 09:58:36;;;;;;;19.85;2.58;;;;;;;5.68;95.77;99781.06;5034754;28;20054;-50
2021/12/09 10:01:06;;;;;;;11.98;2.28;;;;;;;5.66;95.74;99786.41;5034859;28;20521;-52
2021/12/09 10:03:40;;;;;;;10.85;2.00;;;;;;;5.66;96.28;99788.19;5035529;28;20058;-52
2021/12/09 10:06:10;;;;;;;13.02;2.90;;;;;;;5.67;96.33;99797.78;5035725;28;20477;-52
2021/12/09 10:08:38;;;;;;;13.70;2.17;;;;;;;5.69;97.28;99802.03;5034744;28;20145;-52
2021/12/09 10:11:08;;;;;;;8.57;2.13;;;;;;;5.79;96.64;99797.13;5034689;28;20108;-52
2021/12/09 10:13:38;;;;;;;12.27;1.63;;;;;;;5.75;97.30;99795.59;5034686;28;20053;-52
2021/12/09 10:16:18;;;;;;;7.78;1.50;;;;;;;5.85;97.73;99783.66;5035377;28;20061;-57
2021/12/09 10:18:49;;;;;;;11.65;2.70;;;;;;;5.84;97.27;99787.19;5034949;28;20485;-52
2021/12/09 10:21:22;;;;;;;9.48;1.67;;;;;;;5.89;97.67;99785.16;5034361;28;20535;-52
2021/12/09 10:23:58;;;;;;;7.78;1.83;;;;;;;5.94;97.70;99785.75;5035717;28;20405;-52
2021/12/09 10:26:27;;;;;;;13.25;1.63;;;;;;;6.06;97.63;99786.06;5034548;28;20053;-52
2021/12/09 10:29:06;;;;;;;15.80;3.03;;;;;;;6.12;97.17;99781.31;5034119;28;20527;-52
2021/12/09 10:31:42;;;;;;;10.88;1.92;;;;;;;6.17;96.72;99794.25;5035241;28;20057;-53
2021/12/09 10:34:20;;;;;;;10.43;2.25;;;;;;;6.10;97.34;99793.72;5034089;28;20061;-52
2021/12/09 10:36:55;;;;;;;9.68;1.65;;;;;;;6.10;97.86;99777.94;5034086;28;20069;-52
2021/12/09 10:39:39;;;;;;;9.85;1.95;;;;;;;6.22;98.43;99768.50;5034063;28;20057;-52
2021/12/09 10:42:11;;;;;;;11.30;2.35;;;;;;;6.17;98.55;99757.38;5034756;28;20065;-52
2021/12/09 10:44:43;;;;;;;11.10;2.17;;;;;;;6.27;98.94;99750.66;5034237;28;20493;-52
2021/12/09 10:47:20;;;;;;;11.88;1.58;;;;;;;6.36;99.50;99751.91;5034202;28;20058;-52
2021/12/09 10:49:55;;;;;;;10.30;1.85;;;;;;;6.37;99.34;99726.41;5034795;28;20140;-50
2021/12/09 10:52:26;;;;;;;9.75;2.25;;;;;;;6.46;99.52;99731.16;5034318;28;20505;-52
2021/12/09 10:54:55;;;;;;;10.07;1.73;;;;;;;6.56;100.00;99727.06;5034569;28;20079;-51
2021/12/09 10:57:29;;;;;;;9.05;1.80;;;;;;;6.66;99.85;99733.50;5034262;28;20497;-50
2021/12/09 10:59:58;;;;;;;17.45;2.42;;;;;;;6.69;99.82;99737.72;5033026;28;20064;-52
2021/12/09 11:02:28;;;;;;;12.68;2.00;;;;;;;6.81;100.00;99730.91;5034300;28;20068;-52
2021/12/09 11:05:06;;;;;;;12.32;2.10;;;;;;;7.19;98.90;99730.38;5033705;28;20062;-53
2021/12/09 11:07:34;;;;;;;9.25;1.92;;;;;;;7.43;97.62;99718.34;5034008;28;20124;-51
2021/12/09 11:10:17;;;;;;;9.35;1.92;;;;;;;7.74;96.09;99712.94;5034245;28;20057;-52
2021/12/09 11:12:56;;;;;;;12.98;2.00;;;;;;;8.01;94.26;99707.69;5033816;28;20057;-53
2021/12/09 11:15:48;;;;;;;17.67;2.30;;;;;;;7.90;94.45;99700.47;5034124;28;20064;-52
2021/12/09 11:18:33;;;;;;;9.00;2.90;;;;;;;8.05;95.02;99701.25;5034754;28;20049;-52
2021/12/09 11:21:07;;;;;;;6.35;1.45;;;;;;;8.31;93.69;99682.88;5034054;28;20461;-51
2021/12/09 11:23:40;;;;;;;14.23;1.65;;;;;;;8.99;91.51;99683.66;5034753;28;20084;-52
2021/12/09 11:26:30;;;;;;;9.68;2.00;;;;;;;10.23;90.53;99684.56;5034101;28;20057;-51
2021/12/09 11:28:59;;;;;;;5.45;1.13;;;;;;;11.50;77.95;99679.34;5034364;28;20058;-50
2021/12/09 11:31:32;;;;;;;6.60;1.42;;;;;;;11.81;74.61;99676.88;5034032;28;20057;-50
2021/12/09 11:34:10;;;;;;;7.80;1.25;;;;;;;11.48;74.65;99670.66;5033399;28;20068;-53
2021/12/09 11:36:46;;;;;;;8.80;1.80;;;;;;;10.89;78.09;99665.53;5034166;28;20068;-53
2021/12/09 11:39:20;;;;;;;9.98;3.13;;;;;;;10.13;81.54;99670.31;5033440;28;20064;-52
2021/12/09 11:41:49;;;;;;;8.02;1.30;;;;;;;9.44;85.35;99662.91;5034299;28;20057;-51
2021/12/09 11:44:18;;;;;;;3.28;1.10;;;;;;;9.00;87.25;99656.28;5034781;28;20057;-52
2021/12/09 11:46:47;;;;;;;6.75;1.20;;;;;;;8.64;90.13;99652.53;5034172;28;20084;-52
2021/12/09 11:49:17;;;;;;;7.68;1.17;;;;;;;8.28;92.60;99643.44;5033175;28;20096;-50